createdAt,value
2022-08-25T00:02:06.791Z,96056.00
2022-08-25T00:04:35.952Z,96055.00
2022-08-25T00:07:05.622Z,96054.00
2022-08-25T00:09:34.824Z,96057.00
2022-08-25T00:12:04.149Z,96050.00
2022-08-25T00:14:35.933Z,96060.00
2022-08-25T00:17:05.466Z,96059.00
2022-08-25T00:19:36.086Z,96059.00
2022-08-25T00:22:07.233Z,96057.00
2022-08-25T00:24:35.443Z,96059.00
2022-08-25T00:27:03.746Z,96057.00
2022-08-25T00:29:32.043Z,96046.00
2022-08-25T00:32:00.613Z,96054.00
2022-08-25T00:34:34.843Z,96058.00
2022-08-25T00:37:04.512Z,96058.00
2022-08-25T00:39:31.887Z,96053.00
2022-08-25T00:42:00.362Z,96061.00
2022-08-25T00:44:31.263Z,96056.00
2022-08-25T00:47:01.056Z,96056.00
2022-08-25T00:49:40.816Z,96047.00
2022-08-25T00:52:16.941Z,96041.00
2022-08-25T00:54:52.881Z,96051.00
2022-08-25T00:57:34.533Z,96051.00
2022-08-25T01:00:13.878Z,96049.00
2022-08-25T01:02:42.081Z,96046.00
2022-08-25T01:05:10.020Z,96038.00
2022-08-25T01:07:38.178Z,96040.00
2022-08-25T01:10:07.988Z,96039.00
2022-08-25T01:12:37.408Z,96034.00
2022-08-25T01:15:07.863Z,96033.00
2022-08-25T01:17:57.822Z,96034.00
2022-08-25T01:20:30.993Z,96033.00
2022-08-25T01:22:59.537Z,96028.00
2022-08-25T01:25:50.267Z,96029.00
2022-08-25T01:28:19.046Z,96022.00
2022-08-25T01:30:46.922Z,96029.00
2022-08-25T01:33:14.229Z,96025.00
2022-08-25T01:35:41.845Z,96023.00
2022-08-25T01:38:09.382Z,96018.00
2022-08-25T01:40:39.906Z,96022.00
2022-08-25T01:43:08.153Z,96025.00
2022-08-25T01:45:37.794Z,96020.00
2022-08-25T01:48:06.953Z,96022.00
2022-08-25T01:50:35.211Z,96017.00
2022-08-25T01:53:27.769Z,96013.00
2022-08-25T01:56:06.220Z,96010.00
2022-08-25T01:58:41.039Z,96022.00
2022-08-25T02:01:16.050Z,96017.00
2022-08-25T02:03:48.951Z,96012.00
2022-08-25T02:09:16.043Z,96005.00
2022-08-25T02:11:47.936Z,96004.00
2022-08-25T02:14:18.414Z,96006.00
2022-08-25T02:16:51.238Z,96003.00
2022-08-25T02:19:20.237Z,96003.00
2022-08-25T02:21:47.896Z,96004.00
2022-08-25T02:24:15.452Z,95995.00
2022-08-25T02:26:43.675Z,96004.00
2022-08-25T02:29:11.762Z,96009.00
2022-08-25T02:31:39.585Z,96007.00
2022-08-25T02:34:09.189Z,96006.00
2022-08-25T02:36:38.514Z,96008.00
2022-08-25T02:39:10.031Z,96003.00
2022-08-25T02:41:38.939Z,96003.00
2022-08-25T02:44:07.662Z,95998.00
2022-08-25T02:46:36.367Z,95998.00
2022-08-25T02:49:05.003Z,95989.00
2022-08-25T02:51:33.744Z,95980.00
2022-08-25T02:54:02.514Z,95990.00
2022-08-25T02:56:31.709Z,95996.00
2022-08-25T02:59:00.330Z,95985.00
2022-08-25T03:01:29.250Z,95985.00
2022-08-25T03:03:56.913Z,95987.00
2022-08-25T03:06:25.042Z,95989.00
2022-08-25T03:08:53.262Z,95986.00
2022-08-25T03:11:21.096Z,95994.00
2022-08-25T03:13:56.651Z,95982.00
2022-08-25T03:16:27.704Z,95990.00
2022-08-25T03:18:56.825Z,95988.00
2022-08-25T03:21:25.376Z,95984.00
2022-08-25T03:23:55.046Z,95985.00
2022-08-25T03:26:42.310Z,95990.00
2022-08-25T03:29:10.868Z,95994.00
2022-08-25T03:31:40.110Z,95991.00
2022-08-25T03:34:09.516Z,95987.00
2022-08-25T03:39:25.625Z,95981.00
2022-08-25T03:41:53.951Z,96000.00
2022-08-25T03:44:22.126Z,95994.00
2022-08-25T03:46:52.238Z,95996.00
2022-08-25T03:49:23.619Z,96001.00
2022-08-25T03:51:54.277Z,95996.00
2022-08-25T03:54:25.253Z,95993.00
2022-08-25T03:56:53.221Z,96003.00
2022-08-25T03:59:21.231Z,96002.00
2022-08-25T04:01:54.437Z,95999.00
2022-08-25T04:04:22.988Z,96004.00
2022-08-25T04:06:50.275Z,95991.00
2022-08-25T04:09:17.830Z,96004.00
2022-08-25T04:11:45.673Z,96003.00
2022-08-25T04:14:15.857Z,96001.00
2022-08-25T04:16:46.356Z,96007.00
2022-08-25T04:19:14.498Z,96002.00
2022-08-25T04:21:42.326Z,95992.00
2022-08-25T04:24:12.371Z,95990.00
2022-08-25T04:26:47.178Z,95996.00
2022-08-25T04:29:17.479Z,95998.00
2022-08-25T04:31:52.906Z,95988.00
2022-08-25T04:34:30.088Z,95991.00
2022-08-25T04:37:06.769Z,95992.00
2022-08-25T04:39:34.694Z,95988.00
2022-08-25T04:42:06.103Z,95986.00
2022-08-25T04:44:33.336Z,95981.00
2022-08-25T04:49:46.435Z,95995.00
2022-08-25T04:52:14.509Z,95997.00
2022-08-25T04:54:43.190Z,95991.00
2022-08-25T04:57:10.585Z,95987.00
2022-08-25T04:59:41.909Z,95992.00
2022-08-25T05:02:11.095Z,95980.00
2022-08-25T05:04:39.214Z,95994.00
2022-08-25T05:07:06.571Z,95992.00
2022-08-25T05:09:34.457Z,95995.00
2022-08-25T05:12:04.306Z,95979.00
2022-08-25T05:14:32.820Z,96003.00
2022-08-25T05:17:00.464Z,95988.00
2022-08-25T05:19:32.399Z,95986.00
2022-08-25T05:21:59.572Z,95987.00
2022-08-25T05:24:28.618Z,95989.00
2022-08-25T05:26:56.596Z,95977.00
2022-08-25T05:29:24.501Z,95982.00
2022-08-25T05:31:51.651Z,95980.00
2022-08-25T05:34:20.473Z,95973.00
2022-08-25T05:36:48.777Z,95976.00
2022-08-25T05:39:16.854Z,95976.00
2022-08-25T05:41:44.385Z,95979.00
2022-08-25T05:44:12.993Z,95967.00
2022-08-25T05:46:40.783Z,95975.00
2022-08-25T05:49:07.940Z,95981.00
2022-08-25T05:51:35.115Z,95979.00
2022-08-25T05:54:03.939Z,95966.00
2022-08-25T05:56:33.220Z,95975.00
2022-08-25T05:59:09.278Z,95983.00
2022-08-25T06:02:10.086Z,95977.00
2022-08-25T06:04:41.087Z,95971.00
2022-08-25T06:07:09.008Z,95978.00
2022-08-25T06:09:40.015Z,95962.00
2022-08-25T06:12:08.649Z,95970.00
2022-08-25T06:14:37.294Z,95970.00
2022-08-25T06:17:05.167Z,95974.00
2022-08-25T06:19:33.170Z,95951.00
2022-08-25T06:22:07.415Z,95959.00
2022-08-25T06:24:35.171Z,95958.00
2022-08-25T06:27:03.093Z,95963.00
2022-08-25T06:32:15.916Z,95951.00
2022-08-25T06:34:43.183Z,95944.00
2022-08-25T06:37:11.024Z,95936.00
2022-08-25T06:39:38.511Z,95940.00
2022-08-25T06:42:06.360Z,95932.00
2022-08-25T06:44:35.739Z,95934.00
2022-08-25T06:47:03.519Z,95935.00
2022-08-25T06:49:35.980Z,95936.00
2022-08-25T06:52:04.153Z,95936.00
2022-08-25T06:54:31.653Z,95943.00
2022-08-25T06:56:59.168Z,95941.00
2022-08-25T06:59:32.498Z,95943.00
2022-08-25T07:02:03.255Z,95950.00
2022-08-25T07:04:32.605Z,95941.00
2022-08-25T07:07:02.955Z,95940.00
2022-08-25T07:09:30.603Z,95946.00
2022-08-25T07:11:58.500Z,95941.00
2022-08-25T07:14:26.344Z,95951.00
2022-08-25T07:16:53.542Z,95944.00
2022-08-25T07:19:21.250Z,95945.00
2022-08-25T07:21:52.945Z,95951.00
2022-08-25T07:24:21.070Z,95946.00
2022-08-25T07:26:49.109Z,95933.00
2022-08-25T07:29:32.876Z,95940.00
2022-08-25T07:32:02.947Z,95934.00
2022-08-25T07:34:51.934Z,95940.00
2022-08-25T07:40:35.898Z,95940.00
2022-08-25T07:43:08.486Z,95942.00
2022-08-25T07:45:42.089Z,95944.00
2022-08-25T07:48:20.084Z,95942.00
2022-08-25T07:50:48.957Z,95937.00
2022-08-25T07:53:17.839Z,95946.00
2022-08-25T07:55:45.601Z,95944.00
2022-08-25T07:58:15.385Z,95938.00
2022-08-25T08:00:43.311Z,95946.00
2022-08-25T08:05:56.717Z,95937.00
2022-08-25T08:08:24.852Z,95934.00
2022-08-25T08:11:04.577Z,95943.00
2022-08-25T08:13:38.042Z,95940.00
2022-08-25T08:16:14.974Z,95947.00
2022-08-25T08:18:44.937Z,95944.00
2022-08-25T08:21:22.620Z,95941.00
2022-08-25T08:23:56.663Z,95935.00
2022-08-25T08:26:48.180Z,95934.00
2022-08-25T08:29:16.774Z,95938.00
2022-08-25T08:31:48.694Z,95941.00
2022-08-25T08:34:17.382Z,95946.00
2022-08-25T08:36:45.342Z,95942.00
2022-08-25T08:39:19.873Z,95939.00
2022-08-25T08:42:22.496Z,95936.00
2022-08-25T08:45:09.511Z,95936.00
2022-08-25T08:48:02.008Z,95935.00
2022-08-25T08:50:47.886Z,95941.00
2022-08-25T08:53:28.458Z,95933.00
2022-08-25T08:56:11.855Z,95926.00
2022-08-25T08:58:56.785Z,95923.00
2022-08-25T09:02:00.547Z,95908.00
2022-08-25T09:04:58.952Z,95914.00
2022-08-25T09:07:44.228Z,95913.00
2022-08-25T09:10:18.280Z,95916.00
2022-08-25T09:13:15.644Z,95906.00
2022-08-25T09:16:22.431Z,95916.00
2022-08-25T09:19:26.452Z,95913.00
2022-08-25T09:22:34.024Z,95909.00
2022-08-25T09:25:52.242Z,95919.00
2022-08-25T09:28:32.227Z,95901.00
2022-08-25T09:31:34.168Z,95895.00
2022-08-25T09:34:17.207Z,95901.00
2022-08-25T09:36:48.476Z,95902.00
2022-08-25T09:39:16.398Z,95902.00
2022-08-25T09:41:56.789Z,95891.00
2022-08-25T09:44:44.081Z,95895.00
2022-08-25T09:47:28.544Z,95898.00
2022-08-25T09:50:05.206Z,95886.00
2022-08-25T09:52:41.404Z,95899.00
2022-08-25T09:55:09.277Z,95900.00
2022-08-25T09:57:43.102Z,95891.00
2022-08-25T10:00:22.457Z,95885.00
2022-08-25T10:03:15.443Z,95885.00
2022-08-25T10:06:12.913Z,95874.00
2022-08-25T10:08:43.979Z,95875.00
2022-08-25T10:11:31.406Z,95874.00
2022-08-25T10:14:33.565Z,95881.00
2022-08-25T10:17:29.577Z,95877.00
2022-08-25T10:20:20.054Z,95879.00
2022-08-25T10:22:50.869Z,95882.00
2022-08-25T10:25:27.844Z,95879.00
2022-08-25T10:28:53.039Z,95876.00
2022-08-25T10:31:44.102Z,95873.00
2022-08-25T10:34:23.925Z,95866.00
2022-08-25T10:37:32.817Z,95868.00
2022-08-25T10:40:33.025Z,95859.00
2022-08-25T10:43:19.297Z,95868.00
2022-08-25T10:46:21.222Z,95858.00
2022-08-25T10:49:07.143Z,95849.00
2022-08-25T10:51:57.154Z,95851.00
2022-08-25T10:54:47.865Z,95854.00
2022-08-25T10:57:55.191Z,95845.00
2022-08-25T11:00:31.698Z,95853.00
2022-08-25T11:03:42.673Z,95847.00
2022-08-25T11:06:23.973Z,95840.00
2022-08-25T11:08:59.093Z,95830.00
2022-08-25T11:11:40.922Z,95832.00
2022-08-25T11:14:19.377Z,95834.00
2022-08-25T11:17:18.849Z,95837.00
2022-08-25T11:19:52.308Z,95844.00
2022-08-25T11:22:44.073Z,95834.00
2022-08-25T11:25:38.265Z,95828.00
2022-08-25T11:28:32.809Z,95831.00
2022-08-25T11:31:05.399Z,95833.00
2022-08-25T11:33:51.786Z,95835.00
2022-08-25T11:36:35.861Z,95824.00
2022-08-25T11:39:34.832Z,95823.00
2022-08-25T11:42:34.686Z,95828.00
2022-08-25T11:45:30.443Z,95823.00
2022-08-25T11:48:02.490Z,95817.00
2022-08-25T11:51:17.436Z,95814.00
2022-08-25T11:53:46.405Z,95817.00
2022-08-25T11:56:36.924Z,95811.00
2022-08-25T11:59:08.486Z,95822.00
2022-08-25T12:01:44.460Z,95814.00
2022-08-25T12:04:44.964Z,95813.00
2022-08-25T12:07:22.880Z,95813.00
2022-08-25T12:09:51.318Z,95812.00
2022-08-25T12:12:57.201Z,95807.00
2022-08-25T12:15:35.161Z,95811.00
2022-08-25T12:18:31.501Z,95802.00
2022-08-25T12:21:02.497Z,95805.00
2022-08-25T12:23:44.593Z,95804.00
2022-08-25T12:26:55.276Z,95804.00
2022-08-25T12:30:01.407Z,95796.00
2022-08-25T12:32:53.643Z,95790.00
2022-08-25T12:35:32.690Z,95793.00
2022-08-25T12:38:05.494Z,95794.00
2022-08-25T12:40:46.037Z,95797.00
2022-08-25T12:44:00.664Z,95797.00
2022-08-25T12:46:31.988Z,95798.00
2022-08-25T12:49:15.663Z,95799.00
2022-08-25T12:51:48.697Z,95799.00
2022-08-25T12:54:48.033Z,95791.00
2022-08-25T12:57:29.411Z,95806.00
2022-08-25T13:00:00.199Z,95795.00
2022-08-25T13:03:10.931Z,95795.00
2022-08-25T13:05:47.146Z,95797.00
2022-08-25T13:08:46.591Z,95790.00
2022-08-25T13:11:24.806Z,95792.00
2022-08-25T13:14:11.531Z,95783.00
2022-08-25T13:16:39.411Z,95791.00
2022-08-25T13:19:07.412Z,95791.00
2022-08-25T13:21:39.262Z,95776.00
2022-08-25T13:24:17.996Z,95782.00
2022-08-25T13:26:49.374Z,95778.00
2022-08-25T13:29:23.860Z,95775.00
2022-08-25T13:32:09.457Z,95769.00
2022-08-25T13:34:42.742Z,95779.00
2022-08-25T13:37:30.229Z,95769.00
2022-08-25T13:40:26.406Z,95769.00
2022-08-25T13:43:29.442Z,95769.00
2022-08-25T13:45:57.229Z,95771.00
2022-08-25T13:48:38.464Z,95755.00
2022-08-25T13:51:25.490Z,95758.00
2022-08-25T13:54:09.602Z,95755.00
2022-08-25T13:56:42.342Z,95753.00
2022-08-25T13:59:31.200Z,95754.00
2022-08-25T14:02:00.072Z,95745.00
2022-08-25T14:04:33.177Z,95750.00
2022-08-25T14:07:21.289Z,95751.00
2022-08-25T14:10:06.033Z,95753.00
2022-08-25T14:12:46.708Z,95754.00
2022-08-25T14:15:35.763Z,95752.00
2022-08-25T14:18:15.596Z,95749.00
2022-08-25T14:20:54.091Z,95750.00
2022-08-25T14:23:27.691Z,95744.00
2022-08-25T14:25:58.242Z,95746.00
2022-08-25T14:28:30.357Z,95747.00
2022-08-25T14:31:05.523Z,95751.00
2022-08-25T14:34:00.217Z,95741.00
2022-08-25T14:36:30.710Z,95745.00
2022-08-25T14:38:58.391Z,95742.00
2022-08-25T14:41:27.325Z,95743.00
2022-08-25T14:43:54.502Z,95741.00
2022-08-25T14:46:26.399Z,95744.00
2022-08-25T14:49:05.519Z,95732.00
2022-08-25T14:51:34.338Z,95740.00
2022-08-25T14:54:08.212Z,95736.00
2022-08-25T14:56:37.315Z,95732.00
2022-08-25T14:59:08.383Z,95738.00
2022-08-25T15:01:36.060Z,95736.00
2022-08-25T15:04:16.039Z,95732.00
2022-08-25T15:06:45.910Z,95730.00
2022-08-25T15:09:17.052Z,95727.00
2022-08-25T15:11:57.152Z,95721.00
2022-08-25T15:14:28.508Z,95720.00
2022-08-25T15:17:00.708Z,95727.00
2022-08-25T15:19:29.622Z,95720.00
2022-08-25T15:21:58.034Z,95724.00
2022-08-25T15:24:28.488Z,95726.00
2022-08-25T15:27:01.322Z,95720.00
2022-08-25T15:29:32.090Z,95722.00
2022-08-25T15:32:18.981Z,95711.00
2022-08-25T15:34:46.278Z,95710.00
2022-08-25T15:37:17.478Z,95716.00
2022-08-25T15:39:47.052Z,95710.00
2022-08-25T15:42:16.424Z,95714.00
2022-08-25T15:44:53.397Z,95709.00
2022-08-25T15:47:40.662Z,95705.00
2022-08-25T15:50:27.273Z,95703.00
2022-08-25T15:52:54.970Z,95699.00
2022-08-25T15:55:26.553Z,95694.00
2022-08-25T15:57:54.883Z,95693.00
2022-08-25T16:00:23.165Z,95689.00
2022-08-25T16:02:52.936Z,95691.00
2022-08-25T16:05:25.667Z,95691.00
2022-08-25T16:07:53.643Z,95692.00
2022-08-25T16:10:22.626Z,95691.00
2022-08-25T16:12:53.422Z,95688.00
2022-08-25T16:15:23.781Z,95687.00
2022-08-25T16:17:51.761Z,95685.00
2022-08-25T16:20:37.698Z,95679.00
2022-08-25T16:23:05.266Z,95672.00
2022-08-25T16:25:33.646Z,95668.00
2022-08-25T16:28:05.732Z,95667.00
2022-08-25T16:30:33.235Z,95674.00
2022-08-25T16:33:02.651Z,95664.00
2022-08-25T16:35:30.518Z,95673.00
2022-08-25T16:37:57.716Z,95669.00
2022-08-25T16:40:26.666Z,95662.00
2022-08-25T16:42:55.019Z,95662.00
2022-08-25T16:45:22.977Z,95663.00
2022-08-25T16:47:51.658Z,95656.00
2022-08-25T16:56:09.695Z,95662.00
2022-08-25T16:58:39.841Z,95659.00
2022-08-25T17:01:15.373Z,95660.00
2022-08-25T17:03:44.245Z,95664.00
2022-08-25T17:06:15.159Z,95666.00
2022-08-25T17:08:44.394Z,95660.00
2022-08-25T17:11:26.953Z,95661.00
2022-08-25T17:14:01.402Z,95662.00
2022-08-25T17:16:35.633Z,95661.00
2022-08-25T17:19:06.861Z,95655.00
2022-08-25T17:21:40.621Z,95658.00
2022-08-25T17:24:17.092Z,95658.00
2022-08-25T17:26:50.302Z,95664.00
2022-08-25T17:29:21.896Z,95661.00
2022-08-25T17:31:49.604Z,95666.00
2022-08-25T17:34:23.139Z,95666.00
2022-08-25T17:36:58.942Z,95669.00
2022-08-25T17:39:27.359Z,95670.00
2022-08-25T17:41:55.942Z,95672.00
2022-08-25T17:44:23.709Z,95670.00
2022-08-25T17:46:51.969Z,95678.00
2022-08-25T17:49:19.848Z,95676.00
2022-08-25T17:51:47.339Z,95681.00
2022-08-25T17:54:15.874Z,95684.00
2022-08-25T17:56:43.753Z,95673.00
2022-08-25T17:59:12.274Z,95683.00
2022-08-25T18:01:40.321Z,95678.00
2022-08-25T18:04:17.322Z,95681.00
2022-08-25T18:06:48.985Z,95676.00
2022-08-25T18:09:17.925Z,95686.00
2022-08-25T18:11:46.140Z,95679.00
2022-08-25T18:14:16.655Z,95681.00
2022-08-25T18:16:45.030Z,95672.00
2022-08-25T18:19:14.314Z,95684.00
2022-08-25T18:21:43.475Z,95682.00
2022-08-25T18:24:14.100Z,95682.00
2022-08-25T18:26:41.768Z,95681.00
2022-08-25T18:29:13.393Z,95686.00
2022-08-25T18:31:42.430Z,95685.00
2022-08-25T18:34:11.830Z,95690.00
2022-08-25T18:36:41.395Z,95692.00
2022-08-25T18:39:31.493Z,95690.00
2022-08-25T18:42:06.446Z,95694.00
2022-08-25T18:44:36.618Z,95692.00
2022-08-25T18:47:07.475Z,95694.00
2022-08-25T18:49:37.755Z,95688.00
2022-08-25T18:52:08.227Z,95692.00
2022-08-25T18:54:36.085Z,95675.00
2022-08-25T18:57:04.217Z,95689.00
2022-08-25T18:59:37.975Z,95689.00
2022-08-25T19:02:11.884Z,95688.00
2022-08-25T19:04:41.272Z,95692.00
2022-08-25T19:07:13.867Z,95700.00
2022-08-25T19:09:42.000Z,95689.00
2022-08-25T19:12:22.124Z,95700.00
2022-08-25T19:14:50.227Z,95699.00
2022-08-25T19:17:18.633Z,95698.00
2022-08-25T19:19:46.294Z,95695.00
2022-08-25T19:22:38.054Z,95690.00
2022-08-25T19:25:05.529Z,95700.00
2022-08-25T19:27:36.225Z,95696.00
2022-08-25T19:30:09.076Z,95699.00
2022-08-25T19:32:45.482Z,95692.00
2022-08-25T19:35:33.192Z,95697.00
2022-08-25T19:38:07.000Z,95697.00
2022-08-25T19:40:48.217Z,95700.00
2022-08-25T19:43:17.885Z,95696.00
2022-08-25T19:45:46.839Z,95702.00
2022-08-25T19:48:14.947Z,95705.00
2022-08-25T19:50:43.583Z,95702.00
2022-08-25T19:53:14.074Z,95703.00
2022-08-25T19:55:43.461Z,95704.00
2022-08-25T19:58:11.866Z,95708.00
2022-08-25T20:00:40.612Z,95704.00
2022-08-25T20:03:08.714Z,95703.00
2022-08-25T20:05:39.555Z,95710.00
2022-08-25T20:08:07.689Z,95700.00
2022-08-25T20:10:41.937Z,95715.00
2022-08-25T20:13:10.540Z,95699.00
2022-08-25T20:15:39.454Z,95714.00
2022-08-25T20:18:07.281Z,95708.00
2022-08-25T20:20:36.056Z,95702.00
2022-08-25T20:23:22.803Z,95706.00
2022-08-25T20:25:50.619Z,95707.00
2022-08-25T20:28:18.971Z,95703.00
2022-08-25T20:30:47.046Z,95707.00
2022-08-25T20:33:14.313Z,95709.00
2022-08-25T20:35:53.560Z,95701.00
2022-08-25T20:38:26.912Z,95716.00
2022-08-25T20:41:01.868Z,95711.00
2022-08-25T20:43:31.737Z,95724.00
2022-08-25T20:46:08.880Z,95720.00
2022-08-25T20:48:38.927Z,95718.00
2022-08-25T20:51:09.164Z,95723.00
2022-08-25T20:53:41.732Z,95711.00
2022-08-25T20:56:12.974Z,95723.00
2022-08-25T20:58:42.738Z,95714.00
2022-08-25T21:01:42.379Z,95728.00
2022-08-25T21:04:14.991Z,95717.00
2022-08-25T21:06:47.677Z,95728.00
2022-08-25T21:09:20.681Z,95723.00
2022-08-25T21:11:49.833Z,95725.00
2022-08-25T21:14:17.594Z,95725.00
2022-08-25T21:16:47.968Z,95717.00
2022-08-25T21:19:26.281Z,95723.00
2022-08-25T21:21:59.560Z,95730.00
2022-08-25T21:24:31.853Z,95717.00
2022-08-25T21:27:00.330Z,95711.00
2022-08-25T21:29:32.618Z,95723.00
2022-08-25T21:32:00.646Z,95730.00
2022-08-25T21:34:29.446Z,95727.00
2022-08-25T21:37:00.254Z,95718.00
2022-08-25T21:39:30.185Z,95733.00
2022-08-25T21:42:01.368Z,95732.00
2022-08-25T21:44:30.077Z,95738.00
2022-08-25T21:46:58.491Z,95732.00
2022-08-25T21:49:26.115Z,95733.00
2022-08-25T21:52:00.418Z,95729.00
2022-08-25T21:54:29.457Z,95734.00
2022-08-25T21:57:06.622Z,95727.00
2022-08-25T21:59:37.388Z,95732.00
2022-08-25T22:02:09.425Z,95727.00
2022-08-25T22:04:40.711Z,95726.00
2022-08-25T22:07:11.761Z,95729.00
2022-08-25T22:09:40.311Z,95726.00
2022-08-25T22:12:08.465Z,95732.00
2022-08-25T22:14:37.183Z,95725.00
2022-08-25T22:17:05.834Z,95725.00
2022-08-25T22:19:36.515Z,95729.00
2022-08-25T22:22:04.328Z,95739.00
2022-08-25T22:24:31.563Z,95728.00
2022-08-25T22:27:01.182Z,95719.00
2022-08-25T22:29:28.924Z,95718.00
2022-08-25T22:32:02.439Z,95719.00
2022-08-25T22:34:34.714Z,95725.00
2022-08-25T22:37:07.762Z,95724.00
2022-08-25T22:39:40.332Z,95718.00
2022-08-25T22:42:08.042Z,95722.00
2022-08-25T22:44:40.003Z,95731.00
2022-08-25T22:47:09.461Z,95736.00
2022-08-25T22:49:40.260Z,95715.00
2022-08-25T22:52:12.896Z,95717.00
2022-08-25T22:54:42.284Z,95723.00
2022-08-25T22:57:14.158Z,95717.00
2022-08-25T22:59:41.732Z,95714.00
2022-08-25T23:02:09.815Z,95715.00
2022-08-25T23:04:41.257Z,95705.00
2022-08-25T23:07:11.859Z,95715.00
2022-08-25T23:09:40.568Z,95705.00
2022-08-25T23:12:08.775Z,95701.00
2022-08-25T23:14:42.062Z,95694.00
2022-08-25T23:17:13.885Z,95697.00
2022-08-25T23:22:27.785Z,95699.00
2022-08-25T23:24:57.648Z,95694.00
2022-08-25T23:27:25.807Z,95695.00
2022-08-25T23:29:54.451Z,95693.00
2022-08-25T23:32:22.885Z,95691.00
2022-08-25T23:34:55.866Z,95684.00
2022-08-25T23:37:23.307Z,95695.00
2022-08-25T23:39:50.442Z,95688.00
2022-08-25T23:42:19.589Z,95681.00
2022-08-25T23:44:49.717Z,95684.00
2022-08-25T23:47:19.026Z,95678.00
2022-08-25T23:49:48.242Z,95674.00
2022-08-25T23:52:17.845Z,95675.00
2022-08-25T23:54:46.498Z,95671.00
2022-08-25T23:57:15.157Z,95677.00
2022-08-25T23:59:43.338Z,95673.00
